Airfield :
LOGIN :

Register | Disclaimer

   EN    FR    IT 

 










Legend :    VFR   Marginal VFR   IFR   Intensive IFR   Very Intensive IFR
Visi :
Ceiling :
>= 8 km
>= 3000ft
5 to 8 km
1000 to 3000 ft
1500m to 5 km
500 to 1000 ft
800 to 1500m
200 to 500 ft
< 800m
< 200 ft
Symbols :   Thunderstorms  Fog  Heavy snow  Heavy precipitations  Wind > 20 kt
SIGMETs :     Misc.  Thunderstorms  Icing  Turbulence  Mountain Waves  Volcanic Ashes






- Airport Elevation : 622 ft
- IATA code : BRS


EGGD - Bristol Int.

CURRENT METAR :
  • 221350Z AUTO 26006KT 9999 FEW013 BKN019 05/02 Q1038

EXPIRED METARs :
  • 221320Z AUTO 27005KT 9999 SCT016 05/02 Q1038
  • 221250Z AUTO 29006KT 9999 OVC017 05/02 Q1038
  • 221220Z AUTO 29005KT 9999 OVC017 04/02 Q1038
  • 221150Z AUTO 28005KT 9999 OVC017 05/02 Q1038
  • 221120Z AUTO 29005KT 9999 BKN017 05/02 Q1038

TAF TAF EGGD
Valid from the 22 at 12:00 until the 23 at 12:00 UTC


221101Z 2212/2312 25006KT 9999 SCT022
PROB30
TEMPO 2223/2310 BKN014
ATIS : +44 1275 473 666



MET'MAP, your aeronautical weather chart ! - Copyright ORBIFLY December 2007 - Disclaimer

ORBIFLY MET'MAP TEAM :

Programming & Development : Alexandra Zaïnal
Concept & original design : Baudouin d'Aumeries
Assistance for programming : Marc-Olivier Méhu
Technical & hardware support : Manuel Goepfert

Contact : metmap@orbifly.com




SOURCES & CREDITS :

   NOAA